createdAt,value
2018-04-13T00:00:31.359Z,31.80
2018-04-13T00:02:58.268Z,46.87
2018-04-13T00:05:24.779Z,33.90
2018-04-13T00:07:51.326Z,32.53
2018-04-13T00:10:17.909Z,30.53
2018-04-13T00:12:44.419Z,39.50
2018-04-13T00:15:11.182Z,31.73
2018-04-13T00:17:38.323Z,32.77
2018-04-13T00:20:06.283Z,30.77
2018-04-13T00:22:33.722Z,35.77
2018-04-13T00:25:00.234Z,35.87
2018-04-13T00:27:26.883Z,32.63
2018-04-13T00:29:53.341Z,33.73
2018-04-13T00:32:20.590Z,33.60
2018-04-13T00:34:47.091Z,32.17
2018-04-13T00:37:14.624Z,41.03
2018-04-13T00:39:41.130Z,31.17
2018-04-13T00:42:09.582Z,34.47
2018-04-13T00:44:37.336Z,32.73
2018-04-13T00:47:03.862Z,34.77
2018-04-13T00:49:30.246Z,40.17
2018-04-13T00:51:57.556Z,42.50
2018-04-13T00:54:24.023Z,32.67
2018-04-13T00:56:50.489Z,29.53
2018-04-13T00:59:16.959Z,35.47
2018-04-13T01:01:43.406Z,32.53
2018-04-13T01:04:10.178Z,36.97
2018-04-13T01:06:37.488Z,37.50
2018-04-13T01:09:04.030Z,44.80
2018-04-13T01:11:30.554Z,41.10
2018-04-13T01:13:57.098Z,39.87
2018-04-13T01:16:23.615Z,47.67
2018-04-13T01:18:50.070Z,33.80
2018-04-13T01:21:16.559Z,44.77
2018-04-13T01:23:43.827Z,32.77
2018-04-13T01:26:10.419Z,37.40
2018-04-13T01:28:36.953Z,35.97
2018-04-13T01:31:03.907Z,50.33
2018-04-13T01:33:31.074Z,36.17
2018-04-13T01:35:57.679Z,47.90
2018-04-13T01:38:24.450Z,36.43
2018-04-13T01:40:50.946Z,47.37
2018-04-13T01:43:17.450Z,43.00
2018-04-13T01:45:43.902Z,42.10
2018-04-13T01:48:10.402Z,39.90
2018-04-13T01:50:36.935Z,41.50
2018-04-13T01:53:03.572Z,37.47
2018-04-13T01:55:31.034Z,44.80
2018-04-13T01:57:57.775Z,46.53
2018-04-13T02:00:24.586Z,36.53
2018-04-13T02:02:51.486Z,36.63
2018-04-13T02:05:18.749Z,44.03
2018-04-13T02:07:45.232Z,40.57
2018-04-13T02:10:12.083Z,41.77
2018-04-13T02:12:38.603Z,46.23
2018-04-13T02:15:06.385Z,40.60
2018-04-13T02:17:33.639Z,46.97
2018-04-13T02:20:00.138Z,49.10
2018-04-13T02:22:26.482Z,49.50
2018-04-13T02:24:52.942Z,55.83
2018-04-13T02:27:19.653Z,43.17
2018-04-13T02:29:46.290Z,39.67
2018-04-13T02:32:13.774Z,41.27
2018-04-13T02:34:40.391Z,53.03
2018-04-13T02:37:07.569Z,47.57
2018-04-13T02:39:34.331Z,47.90
2018-04-13T02:42:00.844Z,43.60
2018-04-13T02:44:27.385Z,52.87
2018-04-13T02:46:53.822Z,51.50
2018-04-13T02:49:20.276Z,51.40
2018-04-13T02:51:46.812Z,48.10
2018-04-13T02:54:13.207Z,44.33
2018-04-13T02:56:40.601Z,44.70
2018-04-13T02:59:07.087Z,48.23
2018-04-13T03:01:33.742Z,49.70
2018-04-13T03:04:01.089Z,52.53
2018-04-13T03:06:27.736Z,50.13
2018-04-13T03:08:55.024Z,42.30
2018-04-13T03:11:22.229Z,48.13
2018-04-13T03:13:49.152Z,45.70
2018-04-13T03:16:15.646Z,44.97
2018-04-13T03:18:42.114Z,49.83
2018-04-13T03:21:08.642Z,54.00
2018-04-13T03:23:35.176Z,45.73
2018-04-13T03:26:01.817Z,46.60
2018-04-13T03:28:28.550Z,48.53
2018-04-13T03:30:55.325Z,42.77
2018-04-13T03:33:21.795Z,47.50
2018-04-13T03:35:48.369Z,41.60
2018-04-13T03:38:14.910Z,52.43
2018-04-13T03:40:43.069Z,53.80
2018-04-13T03:43:09.933Z,47.57
2018-04-13T03:45:36.484Z,47.83
2018-04-13T03:50:59.708Z,52.93
2018-04-13T03:53:27.684Z,44.70
2018-04-13T03:55:54.562Z,57.33
2018-04-13T03:58:21.380Z,52.33
2018-04-13T04:00:48.554Z,45.70
2018-04-13T04:03:15.998Z,53.70
2018-04-13T04:05:42.482Z,51.13
2018-04-13T04:08:09.104Z,52.57
2018-04-13T04:10:36.988Z,52.77
2018-04-13T04:13:03.549Z,43.13
2018-04-13T04:15:31.015Z,48.83
2018-04-13T04:17:57.568Z,49.83
2018-04-13T04:20:36.070Z,47.70
2018-04-13T04:23:14.575Z,48.20
2018-04-13T04:26:02.005Z,49.77
2018-04-13T04:28:28.662Z,48.10
2018-04-13T04:30:55.178Z,50.10
2018-04-13T04:33:21.934Z,42.37
2018-04-13T04:35:48.761Z,43.53
2018-04-13T04:38:16.051Z,49.47
2018-04-13T04:40:42.731Z,48.73
2018-04-13T04:43:09.922Z,47.17
2018-04-13T04:45:36.780Z,52.23
2018-04-13T04:48:04.129Z,41.80
2018-04-13T04:50:30.655Z,51.50
2018-04-13T04:52:57.915Z,47.87
2018-04-13T04:55:24.375Z,55.50
2018-04-13T04:57:51.202Z,47.20
2018-04-13T05:00:19.402Z,45.13
2018-04-13T05:02:46.075Z,44.10
2018-04-13T05:05:12.585Z,52.90
2018-04-13T05:07:39.467Z,51.73
2018-04-13T05:10:07.022Z,45.00
2018-04-13T05:12:35.138Z,44.20
2018-04-13T05:15:01.755Z,54.23
2018-04-13T05:17:28.437Z,51.17
2018-04-13T05:19:55.260Z,47.73
2018-04-13T05:22:23.026Z,57.00
2018-04-13T05:24:49.563Z,61.03
2018-04-13T05:27:16.047Z,43.60
2018-04-13T05:29:43.600Z,47.80
2018-04-13T05:32:10.234Z,38.07
2018-04-13T05:34:36.730Z,48.23
2018-04-13T05:37:03.234Z,46.83
2018-04-13T05:39:29.664Z,47.50
2018-04-13T05:41:56.349Z,49.30
2018-04-13T05:44:22.988Z,52.33
2018-04-13T05:46:49.668Z,53.53
2018-04-13T05:49:16.938Z,50.33
2018-04-13T05:51:43.912Z,45.73
2018-04-13T05:54:11.259Z,41.67
2018-04-13T05:56:39.447Z,50.67
2018-04-13T05:59:10.182Z,56.57
2018-04-13T06:01:36.936Z,44.73
2018-04-13T06:04:03.461Z,46.90
2018-04-13T06:06:29.878Z,42.57
2018-04-13T06:08:57.363Z,42.37
2018-04-13T06:11:27.894Z,41.90
2018-04-13T06:13:54.618Z,47.23
2018-04-13T06:16:21.523Z,39.50
2018-04-13T06:18:49.612Z,41.73
2018-04-13T06:21:16.184Z,41.00
2018-04-13T06:23:42.995Z,46.50
2018-04-13T06:26:09.674Z,46.17
2018-04-13T06:28:36.250Z,41.10
2018-04-13T06:31:02.795Z,41.50
2018-04-13T06:33:30.967Z,51.40
2018-04-13T06:35:58.121Z,42.87
2018-04-13T06:38:25.402Z,46.27
2018-04-13T06:40:51.905Z,44.83
2018-04-13T06:43:19.227Z,41.20
2018-04-13T06:45:45.730Z,41.73
2018-04-13T06:48:12.608Z,41.20
2018-04-13T06:50:39.586Z,61.27
2018-04-13T06:53:07.748Z,44.40
2018-04-13T06:55:35.405Z,41.33
2018-04-13T06:58:01.903Z,46.33
2018-04-13T07:00:28.402Z,38.43
2018-04-13T07:02:56.415Z,39.13
2018-04-13T07:05:24.414Z,43.30
2018-04-13T07:07:52.222Z,36.83
2018-04-13T07:10:19.325Z,40.53
2018-04-13T07:12:47.372Z,39.20
2018-04-13T07:15:16.773Z,33.67
2018-04-13T07:17:44.145Z,41.37
2018-04-13T07:20:11.466Z,46.77
2018-04-13T07:22:39.206Z,39.13
2018-04-13T07:25:07.347Z,39.50
2018-04-13T07:27:34.660Z,44.03
2018-04-13T07:30:01.234Z,37.40
2018-04-13T07:32:28.108Z,52.03
2018-04-13T07:34:55.100Z,47.53
2018-04-13T07:37:23.703Z,42.70
2018-04-13T07:39:50.331Z,39.90
2018-04-13T07:42:17.056Z,43.33
2018-04-13T07:44:43.750Z,48.80
2018-04-13T07:47:10.531Z,43.10
2018-04-13T07:49:37.534Z,39.57
2018-04-13T07:52:04.040Z,48.37
2018-04-13T07:54:30.518Z,36.87
2018-04-13T07:56:59.610Z,38.47
2018-04-13T07:59:27.430Z,43.93
2018-04-13T08:01:54.171Z,37.90
2018-04-13T08:04:20.811Z,44.83
2018-04-13T08:06:47.410Z,36.23
2018-04-13T08:09:15.598Z,43.23
2018-04-13T08:11:42.088Z,42.10
2018-04-13T08:14:10.210Z,34.37
2018-04-13T08:16:36.985Z,47.27
2018-04-13T08:19:03.461Z,38.23
2018-04-13T08:21:30.077Z,37.80
2018-04-13T08:23:58.709Z,48.23
2018-04-13T08:26:25.420Z,42.20
2018-04-13T08:28:52.794Z,37.40
2018-04-13T08:31:19.244Z,38.20
2018-04-13T08:33:45.668Z,43.47
2018-04-13T08:36:13.698Z,36.10
2018-04-13T08:38:41.906Z,35.80
2018-04-13T08:41:08.352Z,47.17
2018-04-13T08:43:34.772Z,38.23
2018-04-13T08:46:02.060Z,40.70
2018-04-13T08:48:28.566Z,33.67
2018-04-13T08:50:55.335Z,37.43
2018-04-13T08:53:23.352Z,33.43
2018-04-13T08:55:49.910Z,33.43
2018-04-13T08:58:16.596Z,36.33
2018-04-13T09:00:43.868Z,38.97
2018-04-13T09:03:11.431Z,34.73
2018-04-13T09:05:38.164Z,42.90
2018-04-13T09:08:04.943Z,35.47
2018-04-13T09:10:31.478Z,41.30
2018-04-13T09:12:59.735Z,41.10
2018-04-13T09:15:27.470Z,41.67
2018-04-13T09:17:54.493Z,37.87
2018-04-13T09:20:21.068Z,46.47
2018-04-13T09:22:48.405Z,39.67
2018-04-13T09:25:14.844Z,43.70
2018-04-13T09:27:42.183Z,47.97
2018-04-13T09:30:11.378Z,30.23
2018-04-13T09:32:38.186Z,36.60
2018-04-13T09:35:04.813Z,40.53
2018-04-13T09:37:32.541Z,37.90
2018-04-13T09:40:00.156Z,33.90
2018-04-13T09:42:27.340Z,39.27
2018-04-13T09:44:54.029Z,32.40
2018-04-13T09:47:20.448Z,39.60
2018-04-13T09:49:47.111Z,41.03
2018-04-13T09:52:13.543Z,35.10
2018-04-13T09:54:42.027Z,38.37
2018-04-13T09:57:09.089Z,38.23
2018-04-13T09:59:36.815Z,38.80
2018-04-13T10:02:10.077Z,44.07
2018-04-13T10:04:40.307Z,32.90
2018-04-13T10:07:06.887Z,35.00
2018-04-13T10:09:34.106Z,38.37
2018-04-13T10:12:00.880Z,34.97
2018-04-13T10:14:28.316Z,41.23
2018-04-13T10:16:55.377Z,31.33
2018-04-13T10:19:22.074Z,35.43
2018-04-13T10:21:50.206Z,36.53
2018-04-13T10:24:18.706Z,39.63
2018-04-13T10:26:46.239Z,29.40
2018-04-13T10:29:14.475Z,37.07
2018-04-13T10:31:41.546Z,40.17
2018-04-13T10:34:08.155Z,32.80
2018-04-13T10:36:36.341Z,33.07
2018-04-13T10:39:04.636Z,35.23
2018-04-13T10:41:31.474Z,32.60
2018-04-13T10:43:58.221Z,35.20
2018-04-13T10:46:24.789Z,33.63
2018-04-13T10:48:52.265Z,29.80
2018-04-13T10:51:18.799Z,32.23
2018-04-13T10:53:45.199Z,36.20
2018-04-13T10:56:11.672Z,33.23
2018-04-13T10:58:38.789Z,37.27
2018-04-13T11:01:06.490Z,32.40
2018-04-13T11:03:33.735Z,37.47
2018-04-13T11:06:01.801Z,33.23
2018-04-13T11:08:28.957Z,34.83
2018-04-13T11:10:55.788Z,33.60
2018-04-13T11:13:22.403Z,35.23
2018-04-13T11:15:49.176Z,36.87
2018-04-13T11:18:16.646Z,38.87
2018-04-13T11:20:44.243Z,38.97
2018-04-13T11:23:11.284Z,29.33
2018-04-13T11:25:39.569Z,33.90
2018-04-13T11:28:06.495Z,32.63
2018-04-13T11:30:34.650Z,32.93
2018-04-13T11:33:02.960Z,33.63
2018-04-13T11:35:30.631Z,32.83
2018-04-13T11:37:57.342Z,38.20
2018-04-13T11:40:24.909Z,46.57
2018-04-13T11:42:51.778Z,35.37
2018-04-13T11:45:19.327Z,41.63
2018-04-13T11:47:46.946Z,30.97
2018-04-13T11:50:13.373Z,36.77
2018-04-13T11:52:40.082Z,36.37
2018-04-13T11:55:06.996Z,41.50
2018-04-13T11:57:34.453Z,41.80
2018-04-13T12:00:01.055Z,34.00
2018-04-13T12:02:28.035Z,36.23
2018-04-13T12:04:54.476Z,42.23
2018-04-13T12:07:20.970Z,37.40
2018-04-13T12:09:47.407Z,32.90
2018-04-13T12:12:15.388Z,35.10
2018-04-13T12:14:42.945Z,42.27
2018-04-13T12:17:10.696Z,42.23
2018-04-13T12:19:37.157Z,39.20
2018-04-13T12:22:06.249Z,44.33
2018-04-13T12:24:32.699Z,35.23
2018-04-13T12:26:59.722Z,40.07
2018-04-13T12:29:27.010Z,35.83
2018-04-13T12:31:53.540Z,36.10
2018-04-13T12:34:20.004Z,37.33
2018-04-13T12:36:46.580Z,41.40
2018-04-13T12:39:13.991Z,40.23
2018-04-13T12:41:40.450Z,41.47
2018-04-13T12:44:07.105Z,36.10
2018-04-13T12:46:36.610Z,36.23
2018-04-13T12:49:04.318Z,36.40
2018-04-13T12:51:30.879Z,35.37
2018-04-13T12:53:59.592Z,36.87
2018-04-13T12:56:27.753Z,36.27
2018-04-13T12:58:55.870Z,41.57
2018-04-13T13:01:24.266Z,38.87
2018-04-13T13:03:51.222Z,39.83
2018-04-13T13:06:17.904Z,36.73
2018-04-13T13:08:44.939Z,36.83
2018-04-13T13:11:12.563Z,34.93
2018-04-13T13:13:40.654Z,50.73
2018-04-13T13:16:08.902Z,41.10
2018-04-13T13:18:37.373Z,38.60
2018-04-13T13:21:06.592Z,33.57
2018-04-13T13:23:34.233Z,37.90
2018-04-13T13:26:02.460Z,42.73
2018-04-13T13:28:29.588Z,44.07
2018-04-13T13:30:58.094Z,41.93
2018-04-13T13:33:25.012Z,35.83
2018-04-13T13:35:53.338Z,46.90
2018-04-13T13:38:20.543Z,42.37
2018-04-13T13:40:48.693Z,34.83
2018-04-13T13:43:15.566Z,44.60
2018-04-13T13:45:43.888Z,48.57
2018-04-13T13:48:12.018Z,39.37
2018-04-13T13:50:38.896Z,42.60
2018-04-13T13:53:06.356Z,39.23
2018-04-13T13:55:32.845Z,40.40
2018-04-13T13:57:59.625Z,43.97
2018-04-13T14:00:27.055Z,47.30
2018-04-13T14:02:54.398Z,43.50
2018-04-13T14:05:23.195Z,48.77
2018-04-13T14:07:50.246Z,42.53
2018-04-13T14:10:18.913Z,43.07
2018-04-13T14:12:45.698Z,46.03
2018-04-13T14:15:13.305Z,47.43
2018-04-13T14:17:40.352Z,52.93
2018-04-13T14:20:07.092Z,46.03
2018-04-13T14:22:39.013Z,41.30
2018-04-13T14:25:08.627Z,52.90
2018-04-13T14:27:36.286Z,39.03
2018-04-13T14:30:03.753Z,47.17
2018-04-13T14:32:30.759Z,40.00
2018-04-13T14:34:58.554Z,47.47
2018-04-13T14:37:25.647Z,36.03
2018-04-13T14:39:52.755Z,47.00
2018-04-13T14:42:19.311Z,44.87
2018-04-13T14:44:46.638Z,40.10
2018-04-13T14:47:13.719Z,55.77
2018-04-13T14:49:42.178Z,39.13
2018-04-13T14:52:10.592Z,42.80
2018-04-13T14:54:37.263Z,46.10
2018-04-13T14:57:05.328Z,42.60
2018-04-13T14:59:31.940Z,41.60
2018-04-13T15:02:00.538Z,42.70
2018-04-13T15:04:27.148Z,45.13
2018-04-13T15:06:55.117Z,51.00
2018-04-13T15:09:23.185Z,47.40
2018-04-13T15:11:50.888Z,43.50
2018-04-13T15:14:17.946Z,50.73
2018-04-13T15:16:46.727Z,48.57
2018-04-13T15:19:13.168Z,46.87
2018-04-13T15:21:39.939Z,43.17
2018-04-13T15:24:06.454Z,49.17
2018-04-13T15:26:33.716Z,44.67
2018-04-13T15:29:00.509Z,48.83
2018-04-13T15:31:27.694Z,44.70
2018-04-13T15:33:58.023Z,37.40
2018-04-13T15:36:25.498Z,46.07
2018-04-13T15:38:53.804Z,42.53
2018-04-13T15:41:21.635Z,37.30
2018-04-13T15:43:49.857Z,43.43
2018-04-13T15:46:18.269Z,43.87
2018-04-13T15:48:44.844Z,56.77
2018-04-13T15:51:11.278Z,50.90
2018-04-13T15:53:39.620Z,49.30
2018-04-13T15:56:06.091Z,54.83
2018-04-13T15:58:33.127Z,48.97
2018-04-13T16:01:00.338Z,43.77
2018-04-13T16:03:28.456Z,47.20
2018-04-13T16:05:55.640Z,43.63
2018-04-13T16:08:23.616Z,46.90
2018-04-13T16:10:50.045Z,43.77
2018-04-13T16:13:16.478Z,48.87
2018-04-13T16:15:42.942Z,40.77
2018-04-13T16:18:09.450Z,44.03
2018-04-13T16:20:37.031Z,46.77
2018-04-13T16:23:03.624Z,49.47
2018-04-13T16:25:31.642Z,45.10
2018-04-13T16:27:59.026Z,61.53
2018-04-13T16:30:26.325Z,42.97
2018-04-13T16:32:54.958Z,47.60
2018-04-13T16:35:21.838Z,40.60
2018-04-13T16:37:50.140Z,45.80
2018-04-13T16:40:17.336Z,45.90
2018-04-13T16:42:44.504Z,44.87
2018-04-13T16:45:10.987Z,44.87
2018-04-13T16:47:39.064Z,44.10
2018-04-13T16:50:05.682Z,49.40
2018-04-13T16:52:32.680Z,48.17
2018-04-13T16:54:59.960Z,49.17
2018-04-13T16:57:26.954Z,45.87
2018-04-13T16:59:53.480Z,42.40
2018-04-13T17:02:20.107Z,42.30
2018-04-13T17:04:48.378Z,46.50
2018-04-13T17:07:14.868Z,41.20
2018-04-13T17:09:41.737Z,45.30
2018-04-13T17:12:09.913Z,48.60
2018-04-13T17:14:36.830Z,47.90
2018-04-13T17:17:03.390Z,42.43
2018-04-13T17:19:30.104Z,46.33
2018-04-13T17:21:56.594Z,52.37
2018-04-13T17:24:23.586Z,46.90
2018-04-13T17:26:51.754Z,46.40
2018-04-13T17:29:19.459Z,49.13
2018-04-13T17:31:46.259Z,50.67
2018-04-13T17:34:13.239Z,47.97
2018-04-13T17:36:40.265Z,61.33
2018-04-13T17:39:06.901Z,52.33
2018-04-13T17:41:34.492Z,51.13
2018-04-13T17:44:01.094Z,57.23
2018-04-13T17:46:27.621Z,51.93
2018-04-13T17:48:54.890Z,50.00
2018-04-13T17:51:21.545Z,56.87
2018-04-13T17:53:48.122Z,51.20
2018-04-13T17:56:14.617Z,53.13
2018-04-13T17:58:41.812Z,57.70
2018-04-13T18:01:08.303Z,49.07
2018-04-13T18:03:35.554Z,47.97
2018-04-13T18:06:03.030Z,57.23
2018-04-13T18:08:33.535Z,51.43
2018-04-13T18:11:00.835Z,53.57
2018-04-13T18:13:27.747Z,52.00
2018-04-13T18:15:54.255Z,44.93
2018-04-13T18:18:21.496Z,49.33
2018-04-13T18:20:47.993Z,43.13
2018-04-13T18:23:16.011Z,50.23
2018-04-13T18:25:42.367Z,56.83
2018-04-13T18:28:08.993Z,52.43
2018-04-13T18:30:37.322Z,55.27
2018-04-13T18:33:03.908Z,50.23
2018-04-13T18:35:30.439Z,54.60
2018-04-13T18:37:58.328Z,68.13
2018-04-13T18:40:26.789Z,50.50
2018-04-13T18:42:54.640Z,55.07
2018-04-13T18:45:21.437Z,58.40
2018-04-13T18:47:49.425Z,52.13
2018-04-13T18:50:17.299Z,62.13
2018-04-13T18:52:43.983Z,56.33
2018-04-13T18:55:11.130Z,56.20
2018-04-13T18:57:37.605Z,49.90
2018-04-13T19:00:04.805Z,65.30
2018-04-13T19:02:31.350Z,58.20
2018-04-13T19:04:58.284Z,51.97
2018-04-13T19:07:25.448Z,52.33
2018-04-13T19:09:52.064Z,50.30
2018-04-13T19:12:18.533Z,54.97
2018-04-13T19:14:45.083Z,58.10
2018-04-13T19:17:11.504Z,65.57
2018-04-13T19:19:38.203Z,61.70
2018-04-13T19:22:04.811Z,61.07
2018-04-13T19:24:31.383Z,57.27
2018-04-13T19:26:58.052Z,63.33
2018-04-13T19:29:25.228Z,79.37
2018-04-13T19:31:51.824Z,62.33
2018-04-13T19:34:19.044Z,67.40
2018-04-13T19:36:45.509Z,69.20
2018-04-13T19:39:13.598Z,81.87
2018-04-13T19:41:42.964Z,66.77
2018-04-13T19:44:11.365Z,70.37
2018-04-13T19:46:38.583Z,65.27
2018-04-13T19:49:05.478Z,68.67
2018-04-13T19:51:32.784Z,68.40
2018-04-13T19:53:59.366Z,70.50
2018-04-13T19:56:27.236Z,60.93
2018-04-13T19:58:54.080Z,70.23
2018-04-13T20:01:20.534Z,67.13
2018-04-13T20:03:47.074Z,69.57
2018-04-13T20:06:14.027Z,68.70
2018-04-13T20:08:43.987Z,69.73
2018-04-13T20:11:11.755Z,73.27
2018-04-13T20:13:41.212Z,73.13
2018-04-13T20:16:07.765Z,71.23
2018-04-13T20:18:34.247Z,85.80
2018-04-13T20:21:04.659Z,90.13
2018-04-13T20:23:31.905Z,80.70
2018-04-13T20:25:59.949Z,90.07
2018-04-13T20:28:27.125Z,97.37
2018-04-13T20:30:54.979Z,84.10
2018-04-13T20:33:23.429Z,88.80
2018-04-13T20:35:50.855Z,90.40
2018-04-13T20:38:17.471Z,97.10
2018-04-13T20:40:47.376Z,97.43
2018-04-13T20:43:15.843Z,85.13
2018-04-13T20:45:43.091Z,81.40
2018-04-13T20:48:09.447Z,91.67
2018-04-13T20:50:38.247Z,87.00
2018-04-13T20:53:04.721Z,105.77
2018-04-13T20:55:31.190Z,83.67
2018-04-13T20:57:57.814Z,77.50
2018-04-13T21:00:24.743Z,86.53
2018-04-13T21:02:51.296Z,81.93
2018-04-13T21:05:17.832Z,72.90
2018-04-13T21:07:44.376Z,64.67
2018-04-13T21:10:10.855Z,68.93
2018-04-13T21:12:39.203Z,70.70
2018-04-13T21:15:05.886Z,69.60
2018-04-13T21:17:32.488Z,75.17
2018-04-13T21:19:58.868Z,98.53
2018-04-13T21:22:25.306Z,82.23
2018-04-13T21:24:51.809Z,81.23
2018-04-13T21:27:18.299Z,71.97
2018-04-13T21:29:46.109Z,78.73
2018-04-13T21:32:13.749Z,74.63
2018-04-13T21:34:40.346Z,87.77
2018-04-13T21:37:07.591Z,75.30
2018-04-13T21:39:35.006Z,67.77
2018-04-13T21:42:02.445Z,73.50
2018-04-13T21:44:30.159Z,68.10
2018-04-13T21:46:57.374Z,73.80
2018-04-13T21:49:23.881Z,77.97
2018-04-13T21:51:51.131Z,78.33
2018-04-13T21:54:18.327Z,71.80
2018-04-13T21:56:44.948Z,71.73
2018-04-13T21:59:11.280Z,61.17
2018-04-13T22:01:38.122Z,79.67
2018-04-13T22:04:04.860Z,67.97
2018-04-13T22:06:32.828Z,73.50
2018-04-13T22:08:59.349Z,77.10
2018-04-13T22:11:26.004Z,73.23
2018-04-13T22:14:04.619Z,75.60
2018-04-13T22:16:31.819Z,76.87
2018-04-13T22:18:58.837Z,76.73
2018-04-13T22:21:25.637Z,77.17
2018-04-13T22:23:53.068Z,84.87
2018-04-13T22:26:19.940Z,80.77
2018-04-13T22:28:46.539Z,71.60
2018-04-13T22:31:14.100Z,80.87
2018-04-13T22:33:41.219Z,81.70
2018-04-13T22:36:10.387Z,72.67
2018-04-13T22:38:37.758Z,76.73
2018-04-13T22:41:04.439Z,79.83
2018-04-13T22:43:32.404Z,71.33
2018-04-13T22:45:59.009Z,77.43
2018-04-13T22:48:25.758Z,77.37
2018-04-13T22:50:52.233Z,63.97
2018-04-13T22:53:18.705Z,69.43
2018-04-13T22:55:45.844Z,69.87
2018-04-13T22:58:12.449Z,63.87
2018-04-13T23:00:38.962Z,68.53
2018-04-13T23:03:05.682Z,75.57
2018-04-13T23:05:32.232Z,65.73
2018-04-13T23:08:00.417Z,66.67
2018-04-13T23:10:27.345Z,63.73
2018-04-13T23:12:53.983Z,69.73
2018-04-13T23:15:20.581Z,58.57
2018-04-13T23:17:47.979Z,64.83
2018-04-13T23:20:14.538Z,60.23
2018-04-13T23:22:43.772Z,60.17
2018-04-13T23:25:10.900Z,57.57
2018-04-13T23:27:38.140Z,60.47
2018-04-13T23:30:05.298Z,76.37
2018-04-13T23:32:31.803Z,59.57
2018-04-13T23:34:58.191Z,59.60
2018-04-13T23:37:25.382Z,59.07
2018-04-13T23:39:51.805Z,60.57
2018-04-13T23:42:18.335Z,71.83
2018-04-13T23:44:44.710Z,69.73
2018-04-13T23:47:11.246Z,71.50
2018-04-13T23:49:37.869Z,64.10
2018-04-13T23:52:04.475Z,68.83
2018-04-13T23:54:30.897Z,72.40
2018-04-13T23:56:57.299Z,79.20
2018-04-13T23:59:24.080Z,66.27
